Time;durP1;ratioP1;P1;durP2;ratioP2;P2;SDS_P1;SDS_P2;PMS_P1;PMS_P2;Temp;Humidity;BMP_temperature;BMP_pressure;BME280_temperature;BME280_humidity;BME280_pressure;Samples;Min_cycle;Max_cycle;Signal;HPM_P1;HPM_P2
2022/12/06 00:01:35;;;;;;;22.15;10.60;;;5.10;99.90;;;;;;5116004;27;20042;-74
2022/12/06 00:04:04;;;;;;;22.47;10.50;;;5.10;99.90;;;;;;5096227;28;20510;-74
2022/12/06 00:06:31;;;;;;;22.67;10.50;;;5.10;99.90;;;;;;5109186;28;20629;-74
2022/12/06 00:08:58;;;;;;;19.85;9.20;;;5.10;99.90;;;;;;5102547;28;20062;-73
2022/12/06 00:11:29;;;;;;;22.25;9.23;;;5.10;99.90;;;;;;5076560;28;20043;-73
2022/12/06 00:13:57;;;;;;;17.77;8.93;;;5.10;99.90;;;;;;5095599;28;20568;-73
2022/12/06 00:16:24;;;;;;;18.98;8.55;;;5.10;99.90;;;;;;5106192;28;20475;-74
2022/12/06 00:18:50;;;;;;;17.60;8.35;;;5.10;99.90;;;;;;5098895;28;20051;-74
2022/12/06 00:21:17;;;;;;;18.67;8.25;;;5.10;99.90;;;;;;5114674;27;20047;-74
2022/12/06 00:23:49;;;;;;;20.50;7.97;;;5.10;99.90;;;;;;5116536;28;20058;-75
2022/12/06 00:26:16;;;;;;;16.77;8.32;;;5.10;99.90;;;;;;5116131;27;20039;-74
2022/12/06 00:28:42;;;;;;;17.65;7.80;;;5.10;99.90;;;;;;5115934;27;20055;-74
2022/12/06 00:31:12;;;;;;;16.15;7.97;;;5.10;99.90;;;;;;5083549;27;20093;-75
2022/12/06 00:33:38;;;;;;;17.65;8.25;;;5.10;99.90;;;;;;5103756;28;20046;-74
2022/12/06 00:36:09;;;;;;;17.25;8.10;;;5.10;99.90;;;;;;5098162;27;20474;-74
2022/12/06 00:38:35;;;;;;;16.70;8.00;;;5.20;99.90;;;;;;5078871;28;20058;-73
2022/12/06 00:41:09;;;;;;;18.27;7.60;;;5.10;99.90;;;;;;5095639;28;20048;-74
2022/12/06 00:43:36;;;;;;;17.13;7.63;;;5.20;99.90;;;;;;5099058;27;20053;-74
2022/12/06 00:46:04;;;;;;;18.05;8.18;;;5.10;99.90;;;;;;5099132;27;20043;-74
2022/12/06 00:48:30;;;;;;;14.27;7.38;;;5.10;99.90;;;;;;5094782;28;20090;-74
2022/12/06 00:50:56;;;;;;;17.02;6.53;;;5.10;99.90;;;;;;5088420;28;20071;-74
2022/12/06 00:53:22;;;;;;;16.80;6.85;;;5.10;99.90;;;;;;5101223;27;20047;-73
2022/12/06 00:55:48;;;;;;;21.42;7.28;;;5.20;99.90;;;;;;5090357;28;20058;-74
2022/12/06 00:58:16;;;;;;;13.82;6.78;;;5.20;99.90;;;;;;5106600;28;20054;-74
2022/12/06 01:00:42;;;;;;;16.42;6.40;;;5.10;99.90;;;;;;5061988;28;20050;-74
2022/12/06 01:03:08;;;;;;;17.55;6.90;;;5.10;99.90;;;;;;5091502;28;20050;-74
2022/12/06 01:05:46;;;;;;;17.17;6.85;;;5.20;99.90;;;;;;5078725;28;20040;-75
2022/12/06 01:08:12;;;;;;;15.27;6.50;;;5.10;99.90;;;;;;5114998;28;20050;-75
2022/12/06 01:10:38;;;;;;;15.55;6.55;;;5.10;99.90;;;;;;5114934;28;20046;-74
2022/12/06 01:13:04;;;;;;;16.67;6.50;;;5.10;99.90;;;;;;5095505;28;20570;-74
2022/12/06 01:15:30;;;;;;;15.10;5.90;;;5.10;99.90;;;;;;5092300;28;20047;-74
2022/12/06 01:17:56;;;;;;;18.85;5.95;;;5.10;99.90;;;;;;5105057;28;20078;-73
2022/12/06 01:20:22;;;;;;;13.98;5.70;;;5.10;99.90;;;;;;5081133;28;20079;-73
2022/12/06 01:22:47;;;;;;;12.65;5.75;;;5.20;99.90;;;;;;5084915;28;20054;-73
2022/12/06 01:25:13;;;;;;;12.73;5.57;;;5.10;99.90;;;;;;5084824;28;20055;-74
2022/12/06 01:27:39;;;;;;;12.25;6.05;;;5.10;99.90;;;;;;5114807;28;20082;-74
2022/12/06 01:30:05;;;;;;;12.70;5.95;;;5.10;99.90;;;;;;5115503;28;20127;-74
2022/12/06 01:32:31;;;;;;;14.10;6.63;;;5.00;99.90;;;;;;5111857;27;20130;-74
2022/12/06 01:34:57;;;;;;;16.02;6.75;;;5.10;99.90;;;;;;5088796;27;20146;-74
2022/12/06 01:37:22;;;;;;;19.88;6.43;;;5.00;99.90;;;;;;5118634;27;20046;-75
2022/12/06 01:39:48;;;;;;;18.92;6.85;;;5.00;99.90;;;;;;5129494;27;20115;-75
2022/12/06 01:42:14;;;;;;;15.10;7.22;;;5.00;99.90;;;;;;5101743;27;20483;-73
2022/12/06 01:44:45;;;;;;;17.40;7.65;;;5.00;99.90;;;;;;5082064;28;20083;-73
2022/12/06 01:47:26;;;;;;;18.45;7.78;;;5.00;99.90;;;;;;5115086;27;20047;-73
2022/12/06 01:49:59;;;;;;;16.98;7.25;;;5.00;99.90;;;;;;5118778;27;20039;-74
2022/12/06 01:52:38;;;;;;;17.00;7.95;;;5.00;99.90;;;;;;5098717;28;20066;-74
2022/12/06 01:55:07;;;;;;;21.30;7.88;;;5.00;99.90;;;;;;5081767;28;20040;-74
2022/12/06 01:57:33;;;;;;;18.08;6.97;;;5.00;99.90;;;;;;5100880;28;20047;-75
2022/12/06 02:00:00;;;;;;;16.77;7.10;;;5.10;99.90;;;;;;5069806;28;20162;-74
2022/12/06 02:02:26;;;;;;;19.23;7.00;;;5.10;99.90;;;;;;5098778;28;20483;-74
2022/12/06 02:04:52;;;;;;;17.00;7.35;;;5.00;99.90;;;;;;5088535;28;20048;-74
2022/12/06 02:07:21;;;;;;;14.70;6.47;;;5.00;99.90;;;;;;5099478;27;20050;-74
2022/12/06 02:09:49;;;;;;;17.70;6.55;;;5.50;99.90;;;;;;5119568;27;20047;-73
2022/12/06 02:12:15;;;;;;;13.75;6.32;;;5.90;99.90;;;;;;5096296;28;20039;-74
2022/12/06 02:14:45;;;;;;;17.63;6.75;;;5.20;99.90;;;;;;5103639;27;20050;-74
2022/12/06 02:17:46;;;;;;;16.85;6.75;;;5.00;99.90;;;;;;5102627;28;20044;-74
2022/12/06 02:20:29;;;;;;;16.27;7.28;;;5.00;99.90;;;;;;5074527;28;20158;-74
2022/12/06 02:23:13;;;;;;;13.05;6.82;;;5.00;99.90;;;;;;5102576;27;20537;-74
2022/12/06 02:25:54;;;;;;;13.95;7.05;;;5.00;99.90;;;;;;5106542;28;20483;-74
2022/12/06 02:28:59;;;;;;;16.80;6.88;;;5.00;99.90;;;;;;5103693;28;20134;-74
2022/12/06 02:31:33;;;;;;;14.68;7.25;;;5.00;99.90;;;;;;5105003;27;20048;-74
2022/12/06 02:34:24;;;;;;;15.15;7.13;;;5.00;99.90;;;;;;5106844;28;20035;-74
2022/12/06 02:36:58;;;;;;;14.68;6.75;;;5.00;99.90;;;;;;5092165;28;20039;-75
2022/12/06 02:39:43;;;;;;;16.55;7.28;;;5.00;99.90;;;;;;5106744;28;20051;-73
2022/12/06 02:42:22;;;;;;;15.90;6.95;;;5.00;99.90;;;;;;5106078;27;20070;-73
2022/12/06 02:45:02;;;;;;;17.10;6.75;;;4.90;99.90;;;;;;5110874;27;20031;-74
2022/12/06 02:47:35;;;;;;;13.13;6.60;;;5.00;99.90;;;;;;5115867;27;20058;-73
2022/12/06 02:50:05;;;;;;;15.43;6.78;;;5.00;99.90;;;;;;5113050;27;20130;-74
2022/12/06 02:52:33;;;;;;;11.90;6.53;;;5.00;99.90;;;;;;5098315;27;20047;-74
2022/12/06 02:55:00;;;;;;;15.43;6.28;;;5.10;99.90;;;;;;5112275;27;20035;-74
2022/12/06 02:57:44;;;;;;;13.23;6.28;;;4.90;99.90;;;;;;5114319;27;20106;-74
2022/12/06 03:00:28;;;;;;;15.23;5.50;;;4.90;99.90;;;;;;5092340;28;20050;-74
2022/12/06 03:03:18;;;;;;;13.73;5.47;;;4.90;99.90;;;;;;5095646;27;20475;-74
2022/12/06 03:06:02;;;;;;;15.65;5.43;;;4.90;99.90;;;;;;5093834;28;20055;-74
2022/12/06 03:08:48;;;;;;;12.38;5.50;;;4.90;99.90;;;;;;5094417;28;20075;-74
2022/12/06 03:11:14;;;;;;;14.77;5.30;;;4.90;99.90;;;;;;5109069;27;20466;-75
2022/12/06 03:14:01;;;;;;;13.45;5.38;;;4.90;99.90;;;;;;5097967;27;20042;-74
2022/12/06 03:16:49;;;;;;;13.57;4.80;;;4.90;99.90;;;;;;5113693;27;20035;-74
2022/12/06 03:19:25;;;;;;;12.23;4.80;;;4.90;99.90;;;;;;5111352;28;20126;-74
2022/12/06 03:22:06;;;;;;;11.35;5.00;;;4.90;99.90;;;;;;5107223;27;20047;-74
2022/12/06 03:24:37;;;;;;;10.52;4.63;;;4.90;99.90;;;;;;5114283;27;20479;-74
2022/12/06 03:27:09;;;;;;;12.90;5.18;;;5.10;99.90;;;;;;5111551;27;20134;-74
2022/12/06 03:29:41;;;;;;;10.68;4.70;;;5.10;99.90;;;;;;5108277;28;20066;-74
2022/12/06 03:32:08;;;;;;;9.77;4.53;;;4.90;99.90;;;;;;5113447;27;20142;-74
2022/12/06 03:34:38;;;;;;;11.68;4.60;;;4.90;99.90;;;;;;5094713;27;20054;-74
2022/12/06 03:37:08;;;;;;;12.65;4.72;;;4.90;99.90;;;;;;5092320;28;20051;-74
2022/12/06 03:39:42;;;;;;;10.95;4.38;;;4.90;99.90;;;;;;5093636;27;20047;-74
2022/12/06 03:42:08;;;;;;;9.27;4.32;;;4.90;99.90;;;;;;5113631;27;20075;-74
2022/12/06 03:44:34;;;;;;;11.85;4.35;;;4.90;99.90;;;;;;5114494;27;20557;-74
2022/12/06 03:47:35;;;;;;;9.65;4.30;;;4.90;99.90;;;;;;5096704;27;20055;-74
2022/12/06 03:50:10;;;;;;;10.38;4.20;;;4.80;99.90;;;;;;5093691;27;20418;-74
2022/12/06 03:52:38;;;;;;;10.77;4.13;;;4.80;99.90;;;;;;5112383;27;20502;-74
2022/12/06 03:55:04;;;;;;;11.35;3.92;;;4.80;99.90;;;;;;5110276;27;20498;-74
2022/12/06 03:57:30;;;;;;;11.30;4.00;;;4.80;99.90;;;;;;5096029;27;20088;-74
2022/12/06 03:59:55;;;;;;;12.00;3.88;;;4.80;99.90;;;;;;5092590;27;20048;-74
2022/12/06 04:02:21;;;;;;;8.25;4.03;;;4.80;99.90;;;;;;5110341;27;20036;-77
2022/12/06 04:04:48;;;;;;;8.35;3.85;;;4.80;99.90;;;;;;5098734;27;20125;-74
2022/12/06 04:07:14;;;;;;;9.80;4.00;;;4.80;99.90;;;;;;5093581;28;20071;-74
2022/12/06 04:09:51;;;;;;;8.43;3.50;;;4.80;99.90;;;;;;5093830;28;20086;-74
2022/12/06 04:15:06;;;;;;;8.98;3.60;;;4.80;99.90;;;;;;5119547;27;20039;-74
2022/12/06 04:20:16;;;;;;;9.27;3.45;;;4.70;99.90;;;;;;5109311;27;20058;-75
2022/12/06 04:25:26;;;;;;;7.43;3.30;;;4.70;99.90;;;;;;5109339;27;20514;-74
2022/12/06 04:38:48;;;;;;;8.88;3.25;;;4.70;99.90;;;;;;5109649;27;20131;-74
2022/12/06 04:43:58;;;;;;;6.70;3.33;;;4.70;99.90;;;;;;5111337;27;20054;-74
2022/12/06 04:46:23;;;;;;;8.55;3.40;;;4.70;99.90;;;;;;5092101;27;20044;-74
2022/12/06 04:48:49;;;;;;;9.65;3.70;;;4.70;99.90;;;;;;5108833;28;20047;-74
2022/12/06 04:51:15;;;;;;;8.88;3.70;;;4.70;99.90;;;;;;5096443;27;20039;-73
2022/12/06 04:53:41;;;;;;;8.55;3.53;;;4.70;99.90;;;;;;5107396;28;20050;-74
2022/12/06 04:56:07;;;;;;;8.13;3.42;;;4.70;99.90;;;;;;5090761;28;20039;-74
2022/12/06 04:58:33;;;;;;;6.68;3.60;;;4.70;99.90;;;;;;5108276;28;20044;-74
2022/12/06 05:00:59;;;;;;;10.32;3.47;;;4.70;99.90;;;;;;5108950;28;20048;-74
2022/12/06 05:03:25;;;;;;;8.07;3.75;;;4.70;99.90;;;;;;5085693;28;20130;-75
2022/12/06 05:05:51;;;;;;;6.43;3.35;;;4.60;99.90;;;;;;5106561;28;20061;-74
2022/12/06 05:08:17;;;;;;;8.63;3.80;;;4.60;99.90;;;;;;5095782;28;20043;-74
2022/12/06 05:10:49;;;;;;;7.28;3.67;;;4.60;99.90;;;;;;5110977;27;20087;-74
2022/12/06 05:13:15;;;;;;;;;;;4.60;99.90;;;;;;5096879;28;20047;-74
2022/12/06 05:15:53;;;;;;;9.05;4.22;;;4.50;99.90;;;;;;5110109;28;19980;-74
2022/12/06 05:18:19;;;;;;;8.20;4.05;;;4.50;99.90;;;;;;5097433;27;20050;-74
2022/12/06 05:20:45;;;;;;;8.05;3.72;;;4.50;99.90;;;;;;5109829;28;20083;-73
2022/12/06 05:23:11;;;;;;;8.25;4.00;;;5.10;99.90;;;;;;5108886;27;20078;-74
2022/12/06 05:25:36;;;;;;;9.98;5.25;;;4.40;99.90;;;;;;5113360;27;20153;-74
2022/12/06 05:28:02;;;;;;;7.97;4.35;;;4.50;99.90;;;;;;5110905;27;20092;-74
2022/12/06 05:30:28;;;;;;;8.63;4.50;;;4.40;99.90;;;;;;5096054;27;20043;-74
2022/12/06 05:32:54;;;;;;;9.35;4.50;;;4.70;99.90;;;;;;5111192;28;20078;-74
2022/12/06 05:35:19;;;;;;;10.43;4.60;;;4.50;99.90;;;;;;5108316;28;20055;-74
2022/12/06 05:37:45;;;;;;;8.15;4.10;;;4.40;99.90;;;;;;5105351;28;20039;-74
2022/12/06 05:40:11;;;;;;;7.68;4.10;;;4.40;99.90;;;;;;5107172;27;20138;-74
2022/12/06 05:42:39;;;;;;;8.68;4.03;;;4.40;99.90;;;;;;5111342;27;20083;-74
2022/12/06 05:45:06;;;;;;;7.82;4.28;;;4.40;99.90;;;;;;5090384;28;20055;-74
2022/12/06 05:47:32;;;;;;;7.90;4.05;;;4.40;99.90;;;;;;5096617;27;20085;-74
2022/12/06 05:49:57;;;;;;;11.23;4.70;;;4.40;99.90;;;;;;5115963;27;20082;-75
2022/12/06 05:52:23;;;;;;;10.25;5.20;;;4.40;99.90;;;;;;5109105;27;20054;-73
2022/12/06 05:54:49;;;;;;;11.52;5.30;;;4.50;99.90;;;;;;5109320;27;20522;-74
2022/12/06 05:57:14;;;;;;;11.02;4.72;;;4.40;99.90;;;;;;5109380;28;20092;-74
2022/12/06 05:59:40;;;;;;;9.52;4.35;;;4.40;99.90;;;;;;5113903;27;20083;-74
2022/12/06 06:02:06;;;;;;;9.75;4.47;;;4.40;99.90;;;;;;5109789;27;20042;-74
2022/12/06 06:04:32;;;;;;;8.65;4.15;;;4.40;99.90;;;;;;5112856;27;20143;-74
2022/12/06 06:06:57;;;;;;;10.10;4.38;;;4.40;99.90;;;;;;5115065;27;20596;-74
2022/12/06 06:09:26;;;;;;;13.00;4.50;;;4.40;99.90;;;;;;5079274;27;20048;-74
2022/12/06 06:11:52;;;;;;;8.60;4.10;;;4.40;99.90;;;;;;5110449;27;20053;-74
2022/12/06 06:14:18;;;;;;;11.60;4.22;;;4.40;99.90;;;;;;5108827;27;20490;-73
2022/12/06 06:16:44;;;;;;;11.07;4.63;;;5.00;99.90;;;;;;5121018;27;20118;-73
2022/12/06 06:19:10;;;;;;;8.10;3.63;;;4.90;99.90;;;;;;5110322;27;20546;-73
2022/12/06 06:21:36;;;;;;;10.30;4.20;;;4.40;99.90;;;;;;5096461;27;20070;-74
2022/12/06 06:24:01;;;;;;;10.18;4.15;;;4.40;99.90;;;;;;5096293;27;20036;-74
2022/12/06 06:26:28;;;;;;;11.00;4.10;;;4.40;99.90;;;;;;5097758;27;20039;-74
2022/12/06 06:28:54;;;;;;;10.88;4.40;;;4.30;99.90;;;;;;5094541;27;20050;-74
2022/12/06 06:31:20;;;;;;;8.57;4.30;;;4.40;99.90;;;;;;5107386;27;20048;-74
2022/12/06 06:33:46;;;;;;;10.88;4.50;;;4.30;99.90;;;;;;5110613;27;20035;-74
2022/12/06 06:36:13;;;;;;;10.80;4.20;;;4.30;99.90;;;;;;5107583;27;20043;-74
2022/12/06 06:38:38;;;;;;;10.65;4.68;;;4.30;99.90;;;;;;5094481;27;20085;-76
2022/12/06 06:41:05;;;;;;;12.13;4.97;;;4.60;99.90;;;;;;5075099;27;20075;-75
2022/12/06 06:43:31;;;;;;;10.50;5.13;;;4.40;99.90;;;;;;5111025;27;20104;-74
2022/12/06 06:46:03;;;;;;;14.80;5.18;;;4.40;99.90;;;;;;5088948;28;20081;-74
2022/12/06 06:48:32;;;;;;;12.70;6.40;;;4.30;99.90;;;;;;5111899;27;20062;-73
2022/12/06 06:51:03;;;;;;;13.93;8.90;;;4.40;99.90;;;;;;5106078;27;20357;-74
2022/12/06 06:53:30;;;;;;;10.93;4.82;;;4.30;99.90;;;;;;5109221;27;20079;-74
2022/12/06 06:55:56;;;;;;;10.02;4.75;;;4.30;99.90;;;;;;5096216;27;20058;-74
2022/12/06 06:58:22;;;;;;;10.20;4.82;;;4.30;99.90;;;;;;5092082;27;20043;-74
2022/12/06 07:00:55;;;;;;;10.25;5.30;;;4.30;99.90;;;;;;5106518;28;20066;-74
2022/12/06 07:03:22;;;;;;;10.18;5.05;;;4.30;99.90;;;;;;5091049;28;20043;-74
2022/12/06 07:05:56;;;;;;;10.68;4.38;;;4.30;99.90;;;;;;5102852;27;20054;-75
2022/12/06 07:08:23;;;;;;;8.80;4.25;;;4.20;99.90;;;;;;5104181;28;20449;-74
2022/12/06 07:10:49;;;;;;;9.43;4.50;;;4.30;99.90;;;;;;5096646;28;20391;-74
2022/12/06 07:13:19;;;;;;;9.60;4.20;;;4.20;99.90;;;;;;5125315;27;20046;-73
2022/12/06 07:15:45;;;;;;;8.70;4.20;;;4.40;99.90;;;;;;5117692;27;20047;-73
2022/12/06 07:18:11;;;;;;;12.07;4.50;;;4.20;99.90;;;;;;5113829;28;20044;-74
2022/12/06 07:20:37;;;;;;;8.93;4.15;;;4.30;99.90;;;;;;5105185;28;20079;-73
2022/12/06 07:23:03;;;;;;;11.02;4.65;;;4.20;99.90;;;;;;5109849;27;20159;-74
2022/12/06 07:25:30;;;;;;;10.13;4.63;;;4.30;99.90;;;;;;5117601;27;20047;-74
2022/12/06 07:27:56;;;;;;;12.20;4.65;;;4.20;99.90;;;;;;5100611;27;20092;-74
2022/12/06 07:30:22;;;;;;;8.68;4.95;;;4.40;99.90;;;;;;5099353;27;20043;-74
2022/12/06 07:32:48;;;;;;;11.40;4.90;;;4.10;99.90;;;;;;5116995;27;20039;-74
2022/12/06 07:35:14;;;;;;;9.80;4.50;;;4.10;99.90;;;;;;5115846;27;20532;-74
2022/12/06 07:37:44;;;;;;;9.52;4.50;;;4.10;99.90;;;;;;5098941;27;20513;-74
2022/12/06 07:40:11;;;;;;;9.75;4.38;;;4.10;99.90;;;;;;5096671;28;20131;-74
2022/12/06 07:45:21;;;;;;;8.73;4.47;;;4.00;99.90;;;;;;5097615;27;20083;-74
2022/12/06 07:47:47;;;;;;;10.20;4.15;;;4.00;99.90;;;;;;5078678;28;20455;-73
2022/12/06 07:50:15;;;;;;;9.68;4.07;;;4.00;99.90;;;;;;5098228;28;20048;-74
2022/12/06 07:52:41;;;;;;;8.75;4.63;;;3.90;99.90;;;;;;5097435;27;20046;-74
2022/12/06 07:55:08;;;;;;;8.95;3.70;;;3.90;99.90;;;;;;5098610;27;20512;-75
2022/12/06 07:57:34;;;;;;;12.70;4.25;;;3.80;99.90;;;;;;5086721;28;20052;-74
2022/12/06 08:00:00;;;;;;;9.98;4.32;;;3.60;99.90;;;;;;5106529;27;20461;-75
2022/12/06 08:02:27;;;;;;;9.65;4.47;;;3.70;99.90;;;;;;5102559;28;20110;-74
2022/12/06 08:04:53;;;;;;;9.60;4.18;;;3.70;99.90;;;;;;5075397;28;20036;-75
2022/12/06 08:07:20;;;;;;;10.65;4.00;;;3.60;99.90;;;;;;5098818;28;20075;-74
2022/12/06 08:09:46;;;;;;;7.85;3.88;;;3.50;99.90;;;;;;5091692;28;20446;-74
2022/12/06 08:12:13;;;;;;;7.90;4.10;;;3.70;99.90;;;;;;5083097;28;20052;-74
2022/12/06 08:14:38;;;;;;;9.15;3.90;;;3.50;99.90;;;;;;5083242;27;20458;-74
2022/12/06 08:17:04;;;;;;;17.25;11.15;;;3.40;99.90;;;;;;5076862;28;20131;-74
2022/12/06 08:19:30;;;;;;;16.10;8.85;;;3.40;99.90;;;;;;5099517;28;20506;-74
2022/12/06 08:21:56;;;;;;;10.48;6.00;;;3.40;99.90;;;;;;5101599;28;20040;-74
2022/12/06 08:24:22;;;;;;;12.35;6.80;;;3.40;99.90;;;;;;5118819;27;20471;-74
2022/12/06 08:26:48;;;;;;;8.60;5.55;;;3.50;99.90;;;;;;5098977;28;20060;-74
2022/12/06 08:29:14;;;;;;;9.55;4.80;;;3.70;99.90;;;;;;5092332;28;20454;-74
2022/12/06 08:31:40;;;;;;;10.88;4.43;;;3.30;99.90;;;;;;5105699;28;20044;-74
2022/12/06 08:34:05;;;;;;;8.50;4.22;;;3.30;99.90;;;;;;5098139;27;20047;-74
2022/12/06 08:36:31;;;;;;;10.63;4.68;;;3.50;99.90;;;;;;5079678;28;20044;-75
2022/12/06 08:38:58;;;;;;;11.32;5.13;;;3.20;99.90;;;;;;5112193;27;20095;-74
2022/12/06 08:44:12;;;;;;;13.63;7.00;;;3.60;99.90;;;;;;5110306;28;20101;-73
2022/12/06 08:46:39;;;;;;;12.77;6.78;;;4.00;99.90;;;;;;5089703;28;20065;-73
2022/12/06 08:49:05;;;;;;;12.25;6.60;;;5.10;99.90;;;;;;5107015;27;20058;-74
2022/12/06 08:51:32;;;;;;;12.90;7.15;;;4.40;99.90;;;;;;5091562;28;20039;-74
2022/12/06 08:53:59;;;;;;;14.98;7.18;;;4.50;99.90;;;;;;5093484;28;20491;-75
2022/12/06 08:56:25;;;;;;;12.32;6.90;;;4.90;99.90;;;;;;5110372;28;20099;-73
2022/12/06 08:58:52;;;;;;;11.70;7.50;;;4.80;99.90;;;;;;5112385;28;20119;-74
2022/12/06 09:01:25;;;;;;;10.93;6.00;;;5.30;99.90;;;;;;5108396;28;20085;-74
2022/12/06 09:03:51;;;;;;;10.15;5.63;;;5.00;99.90;;;;;;5107630;28;20054;-73
2022/12/06 09:06:19;;;;;;;9.15;5.40;;;5.00;99.90;;;;;;5109824;28;20048;-73
2022/12/06 09:08:45;;;;;;;8.85;5.00;;;5.00;99.90;;;;;;5109714;28;20051;-73
2022/12/06 09:11:11;;;;;;;9.90;5.35;;;5.10;99.90;;;;;;5090549;28;20456;-73
2022/12/06 09:13:37;;;;;;;10.38;5.22;;;5.10;99.90;;;;;;5090545;28;20100;-73
2022/12/06 09:16:09;;;;;;;9.27;5.28;;;5.20;99.90;;;;;;5107872;28;20043;-73
2022/12/06 09:18:35;;;;;;;9.40;5.20;;;5.30;99.90;;;;;;5088001;28;20058;-75
2022/12/06 09:21:10;;;;;;;7.80;4.53;;;5.30;99.90;;;;;;5108747;28;20043;-73
2022/12/06 09:23:36;;;;;;;8.63;5.05;;;5.50;99.90;;;;;;5107779;28;20047;-75
2022/12/06 09:26:03;;;;;;;9.18;5.00;;;5.60;99.90;;;;;;5096378;28;20567;-73
2022/12/06 09:28:30;;;;;;;8.07;5.07;;;5.60;99.90;;;;;;5110784;28;20168;-73
2022/12/06 09:30:56;;;;;;;9.57;5.05;;;5.90;99.90;;;;;;5092368;28;20071;-73
2022/12/06 09:33:23;;;;;;;9.30;4.40;;;5.80;99.90;;;;;;5107826;28;20055;-73
2022/12/06 09:35:52;;;;;;;8.68;4.50;;;6.00;99.90;;;;;;5109188;28;20077;-73
2022/12/06 09:38:21;;;;;;;7.95;4.50;;;5.90;99.90;;;;;;5094074;28;20051;-73
2022/12/06 09:41:15;;;;;;;8.30;4.22;;;5.90;99.90;;;;;;5102246;28;20061;-72
2022/12/06 09:44:00;;;;;;;8.90;4.32;;;5.70;99.90;;;;;;5108130;28;20103;-73
2022/12/06 09:46:35;;;;;;;9.15;4.72;;;5.60;99.90;;;;;;5092166;28;20058;-72
2022/12/06 09:49:10;;;;;;;9.10;4.32;;;5.60;99.90;;;;;;5095177;28;20058;-72
2022/12/06 09:51:41;;;;;;;8.63;4.50;;;5.70;99.90;;;;;;5088825;28;20067;-72
2022/12/06 09:54:35;;;;;;;8.33;4.23;;;5.80;99.90;;;;;;5110358;27;20044;-73
2022/12/06 09:57:15;;;;;;;8.32;4.35;;;5.80;99.90;;;;;;5115536;27;20689;-73
2022/12/06 09:59:59;;;;;;;7.68;3.97;;;5.80;99.90;;;;;;5110642;27;20059;-73
2022/12/06 10:02:42;;;;;;;8.93;4.32;;;5.70;99.90;;;;;;5115206;27;20372;-73
2022/12/06 10:05:35;;;;;;;8.00;4.05;;;5.70;99.90;;;;;;5095584;27;20073;-73
2022/12/06 10:08:16;;;;;;;9.25;3.90;;;5.70;99.90;;;;;;5115599;27;20050;-73
2022/12/06 10:11:35;;;;;;;8.38;4.20;;;5.70;99.90;;;;;;5109160;27;20600;-72
2022/12/06 10:14:20;;;;;;;9.23;4.25;;;5.50;99.90;;;;;;5071648;28;20036;-73
2022/12/06 10:16:58;;;;;;;7.68;3.90;;;5.40;99.90;;;;;;5110701;27;20035;-73
2022/12/06 10:19:58;;;;;;;7.00;4.00;;;5.40;99.90;;;;;;5108434;27;20051;-72
2022/12/06 10:22:58;;;;;;;7.72;4.03;;;5.40;99.90;;;;;;5108250;27;20047;-73
2022/12/06 10:25:39;;;;;;;9.57;3.90;;;5.40;99.90;;;;;;5128212;27;20074;-73
2022/12/06 10:28:30;;;;;;;8.85;4.28;;;5.50;99.90;;;;;;5113389;27;20483;-72
2022/12/06 10:31:05;;;;;;;8.57;3.90;;;5.60;99.90;;;;;;5110038;27;20117;-73
2022/12/06 10:33:41;;;;;;;8.70;4.05;;;5.60;99.90;;;;;;5112458;27;20054;-72
2022/12/06 10:36:08;;;;;;;7.65;3.97;;;5.60;99.90;;;;;;5110887;27;20444;-72
2022/12/06 10:38:43;;;;;;;8.00;3.50;;;5.80;99.90;;;;;;5095028;28;20035;-73
2022/12/06 10:41:25;;;;;;;7.30;3.60;;;5.90;99.90;;;;;;5115595;27;20352;-73
2022/12/06 10:43:57;;;;;;;7.72;3.78;;;5.90;99.90;;;;;;5090798;27;20051;-72
2022/12/06 10:49:43;;;;;;;10.48;3.72;;;5.90;99.90;;;;;;5105006;27;20090;-73
2022/12/06 10:52:11;;;;;;;8.70;3.60;;;5.90;99.90;;;;;;5102457;28;20040;-73
2022/12/06 10:55:04;;;;;;;8.55;3.33;;;5.90;99.90;;;;;;5112383;27;20031;-73
2022/12/06 10:57:42;;;;;;;7.22;3.35;;;6.00;99.90;;;;;;5111608;27;20495;-72
2022/12/06 11:00:18;;;;;;;8.40;3.60;;;6.30;99.90;;;;;;5086900;28;20059;-73
2022/12/06 11:02:57;;;;;;;7.47;3.67;;;5.90;99.90;;;;;;5111062;27;20055;-73
2022/12/06 11:05:40;;;;;;;8.15;3.40;;;5.90;99.90;;;;;;5112109;27;20050;-74
2022/12/06 11:08:17;;;;;;;7.53;3.60;;;5.90;99.90;;;;;;5106069;28;20054;-73
2022/12/06 11:10:45;;;;;;;6.65;3.03;;;5.90;99.90;;;;;;5097913;28;20039;-73
2022/12/06 11:13:32;;;;;;;8.10;3.40;;;6.50;99.90;;;;;;5090934;28;20044;-73
2022/12/06 11:16:00;;;;;;;7.25;3.30;;;5.90;99.90;;;;;;5110575;27;20039;-72
2022/12/06 11:18:28;;;;;;;9.57;3.35;;;5.90;99.90;;;;;;5104296;27;20059;-74
2022/12/06 11:21:00;;;;;;;6.18;3.00;;;5.90;99.90;;;;;;5116805;27;20134;-72
2022/12/06 11:23:40;;;;;;;8.25;3.13;;;5.90;99.90;;;;;;5094741;27;20031;-73
2022/12/06 11:26:22;;;;;;;8.38;3.10;;;5.90;99.90;;;;;;5089392;27;20051;-72
2022/12/06 11:28:54;;;;;;;;;;;5.90;99.90;;;;;;5104820;27;20043;-73
2022/12/06 11:31:37;;;;;;;6.18;2.70;;;6.00;99.90;;;;;;5103284;27;19919;-73
2022/12/06 11:34:05;;;;;;;7.13;2.88;;;6.00;99.90;;;;;;5104013;27;20047;-73
2022/12/06 11:36:32;;;;;;;6.70;2.67;;;6.00;99.90;;;;;;5079661;28;20079;-73
2022/12/06 11:38:58;;;;;;;7.05;2.72;;;6.00;99.90;;;;;;5093974;27;20039;-72
2022/12/06 11:41:27;;;;;;;7.40;2.80;;;6.10;99.90;;;;;;5092739;27;20047;-72
2022/12/06 11:43:55;;;;;;;6.53;2.78;;;6.10;99.90;;;;;;5103588;27;20047;-72
2022/12/06 11:46:22;;;;;;;7.68;2.60;;;6.20;99.90;;;;;;5111696;27;20058;-73
2022/12/06 11:48:48;;;;;;;6.88;2.70;;;6.30;99.90;;;;;;5090752;27;20044;-72
2022/12/06 11:51:21;;;;;;;7.10;2.80;;;6.40;99.90;;;;;;5111264;27;20088;-74
2022/12/06 11:53:59;;;;;;;6.28;2.78;;;6.40;99.90;;;;;;5108646;27;20035;-73
2022/12/06 11:56:28;;;;;;;7.60;2.60;;;6.40;99.90;;;;;;5113015;27;20051;-73
2022/12/06 11:59:15;;;;;;;6.35;2.60;;;6.30;99.90;;;;;;5087065;27;20043;-73
2022/12/06 12:01:47;;;;;;;6.50;2.83;;;6.30;99.90;;;;;;5108708;27;20518;-72
2022/12/06 12:04:24;;;;;;;;;;;6.30;99.90;;;;;;5109597;28;20111;-73
2022/12/06 12:07:15;;;;;;;8.13;2.80;;;6.30;99.90;;;;;;5093255;28;19919;-73
2022/12/06 12:10:21;;;;;;;5.82;2.70;;;6.30;99.90;;;;;;5107472;27;20047;-74
2022/12/06 12:15:32;;;;;;;6.03;2.67;;;6.20;99.90;;;;;;5127180;27;20043;-73
2022/12/06 12:17:59;;;;;;;7.15;2.88;;;6.20;99.90;;;;;;5087893;27;20095;-72
2022/12/06 12:20:36;;;;;;;7.07;3.00;;;6.20;99.90;;;;;;5092744;27;20451;-73
2022/12/06 12:23:17;;;;;;;6.88;3.13;;;6.20;99.90;;;;;;5112778;27;20050;-73
2022/12/06 12:26:17;;;;;;;6.32;2.97;;;6.30;99.90;;;;;;5110325;27;20054;-72
2022/12/06 12:28:45;;;;;;;6.80;3.00;;;6.30;99.90;;;;;;5093932;27;20078;-72
2022/12/06 12:31:23;;;;;;;6.72;2.92;;;6.40;99.90;;;;;;5110412;27;20058;-71
2022/12/06 12:34:13;;;;;;;5.32;2.78;;;6.30;99.90;;;;;;5109155;28;20039;-72
2022/12/06 12:36:47;;;;;;;5.22;2.42;;;6.40;99.90;;;;;;5109540;27;20531;-72
2022/12/06 12:39:28;;;;;;;6.85;2.50;;;6.40;99.90;;;;;;5092467;28;20058;-72
2022/12/06 12:41:54;;;;;;;6.75;2.60;;;6.40;99.90;;;;;;5106821;27;20082;-72
2022/12/06 12:44:32;;;;;;;6.95;2.80;;;6.40;99.90;;;;;;5092123;28;20071;-73
2022/12/06 12:47:05;;;;;;;6.93;2.90;;;6.30;99.90;;;;;;5095086;28;20446;-72
2022/12/06 12:49:35;;;;;;;5.47;2.70;;;6.30;99.90;;;;;;5108104;28;20055;-72
2022/12/06 12:52:23;;;;;;;6.10;2.65;;;6.20;99.90;;;;;;5110724;27;20083;-72
2022/12/06 12:55:12;;;;;;;6.30;2.75;;;6.20;99.90;;;;;;5108906;28;20073;-73
2022/12/06 12:57:39;;;;;;;6.25;2.65;;;6.50;99.90;;;;;;5109675;28;20089;-72
2022/12/06 13:00:05;;;;;;;5.70;2.78;;;6.10;99.90;;;;;;5111050;28;20043;-72
2022/12/06 13:02:35;;;;;;;8.10;2.95;;;6.10;99.90;;;;;;5111917;28;20055;-72
2022/12/06 13:05:29;;;;;;;7.00;2.92;;;6.10;99.90;;;;;;5095078;28;20043;-72
2022/12/06 13:08:03;;;;;;;6.47;2.70;;;6.10;99.90;;;;;;5089886;28;20063;-72
2022/12/06 13:10:35;;;;;;;5.85;2.63;;;6.10;99.90;;;;;;5109435;28;20047;-72
2022/12/06 13:13:18;;;;;;;7.05;2.70;;;6.10;99.90;;;;;;5092277;28;20108;-72
2022/12/06 13:15:50;;;;;;;6.03;2.30;;;6.10;99.90;;;;;;5088850;28;20047;-73
2022/12/06 13:18:30;;;;;;;5.70;2.20;;;6.10;99.90;;;;;;5091833;28;20048;-72
2022/12/06 13:20:59;;;;;;;5.72;2.25;;;6.10;99.90;;;;;;5095511;28;20040;-72
2022/12/06 13:23:35;;;;;;;7.95;2.38;;;6.00;99.90;;;;;;5106536;28;20051;-72
2022/12/06 13:26:28;;;;;;;6.25;2.17;;;6.00;99.90;;;;;;5109332;28;20043;-72
2022/12/06 13:28:58;;;;;;;6.63;2.38;;;5.90;99.90;;;;;;5104112;27;20478;-71
2022/12/06 13:31:29;;;;;;;6.75;2.47;;;5.90;99.90;;;;;;5115491;27;20125;-73
2022/12/06 13:34:13;;;;;;;5.93;2.50;;;5.80;99.90;;;;;;5116357;27;20511;-72
2022/12/06 13:36:39;;;;;;;6.38;2.60;;;5.80;99.90;;;;;;5102172;28;20082;-72
2022/12/06 13:39:31;;;;;;;5.45;2.20;;;5.70;99.90;;;;;;5114531;27;20082;-72
2022/12/06 13:42:18;;;;;;;5.70;2.20;;;5.70;99.90;;;;;;5113096;27;20502;-72
2022/12/06 13:44:47;;;;;;;5.60;2.30;;;5.70;99.90;;;;;;5114168;27;20137;-72
2022/12/06 13:47:28;;;;;;;5.82;2.17;;;5.70;99.90;;;;;;5114199;27;20163;-72
2022/12/06 13:49:55;;;;;;;7.07;2.40;;;5.70;99.90;;;;;;5112282;27;20470;-74